createdAt,value
2018-07-08T00:00:42.216Z,5.57
2018-07-08T00:03:13.162Z,5.37
2018-07-08T00:05:44.569Z,5.53
2018-07-08T00:08:15.951Z,5.90
2018-07-08T00:10:56.750Z,5.53
2018-07-08T00:13:27.972Z,5.47
2018-07-08T00:15:59.321Z,5.30
2018-07-08T00:18:30.996Z,6.10
2018-07-08T00:21:02.192Z,5.73
2018-07-08T00:23:33.467Z,6.00
2018-07-08T00:26:05.021Z,6.30
2018-07-08T00:28:36.474Z,6.37
2018-07-08T00:31:07.870Z,6.60
2018-07-08T00:33:39.050Z,6.00
2018-07-08T00:36:10.390Z,6.83
2018-07-08T00:38:41.632Z,6.20
2018-07-08T00:41:13.144Z,6.50
2018-07-08T00:43:44.184Z,5.77
2018-07-08T00:46:15.529Z,5.67
2018-07-08T00:48:46.771Z,5.23
2018-07-08T00:51:17.917Z,4.90
2018-07-08T00:53:49.147Z,5.27
2018-07-08T00:56:20.771Z,5.07
2018-07-08T00:58:52.156Z,4.57
2018-07-08T01:01:23.825Z,4.63
2018-07-08T01:03:55.332Z,4.77
2018-07-08T01:06:26.668Z,4.23
2018-07-08T01:08:57.976Z,4.50
2018-07-08T01:11:29.355Z,5.03
2018-07-08T01:13:59.875Z,4.90
2018-07-08T01:16:31.254Z,4.70
2018-07-08T01:19:02.666Z,4.97
2018-07-08T01:21:34.641Z,5.03
2018-07-08T01:24:06.379Z,5.20
2018-07-08T01:26:38.935Z,6.10
2018-07-08T01:29:10.328Z,5.50
2018-07-08T01:31:41.987Z,5.93
2018-07-08T01:34:13.763Z,6.17
2018-07-08T01:36:45.064Z,6.47
2018-07-08T01:39:16.811Z,6.77
2018-07-08T01:41:48.118Z,7.20
2018-07-08T01:44:19.282Z,7.60
2018-07-08T01:46:50.680Z,7.20
2018-07-08T01:49:21.899Z,7.70
2018-07-08T01:51:53.038Z,8.07
2018-07-08T01:54:25.316Z,6.90
2018-07-08T01:56:56.733Z,5.80
2018-07-08T01:59:27.992Z,5.93
2018-07-08T02:01:59.389Z,6.00
2018-07-08T02:04:30.731Z,5.80
2018-07-08T02:07:02.021Z,5.30
2018-07-08T02:09:33.316Z,5.20
2018-07-08T02:12:04.415Z,5.80
2018-07-08T02:14:35.904Z,5.47
2018-07-08T02:17:07.319Z,5.33
2018-07-08T02:19:38.975Z,5.30
2018-07-08T02:22:10.082Z,5.60
2018-07-08T02:24:41.655Z,5.27
2018-07-08T02:27:13.080Z,5.77
2018-07-08T02:29:44.662Z,5.80
2018-07-08T02:32:17.053Z,5.43
2018-07-08T02:34:48.863Z,5.90
2018-07-08T02:37:20.052Z,5.50
2018-07-08T02:39:51.416Z,5.50
2018-07-08T02:42:23.571Z,6.13
2018-07-08T02:44:55.316Z,5.93
2018-07-08T02:47:26.824Z,5.90
2018-07-08T02:49:58.220Z,5.93
2018-07-08T02:52:28.874Z,6.33
2018-07-08T02:54:59.918Z,6.20
2018-07-08T02:57:31.107Z,5.90
2018-07-08T03:00:02.570Z,5.70
2018-07-08T03:02:33.856Z,6.40
2018-07-08T03:05:05.212Z,5.93
2018-07-08T03:07:36.711Z,5.70
2018-07-08T03:10:08.472Z,6.00
2018-07-08T03:12:39.662Z,6.10
2018-07-08T03:15:10.823Z,5.37
2018-07-08T03:17:42.194Z,5.97
2018-07-08T03:20:14.027Z,6.10
2018-07-08T03:22:45.349Z,5.90
2018-07-08T03:25:16.553Z,6.20
2018-07-08T03:27:47.565Z,5.87
2018-07-08T03:30:18.940Z,5.03
2018-07-08T03:32:50.108Z,5.27
2018-07-08T03:35:21.123Z,5.10
2018-07-08T03:37:52.535Z,5.30
2018-07-08T03:40:23.691Z,5.17
2018-07-08T03:42:55.223Z,5.57
2018-07-08T03:45:26.492Z,5.33
2018-07-08T03:47:57.857Z,4.80
2018-07-08T03:50:28.876Z,5.00
2018-07-08T03:53:00.260Z,4.60
2018-07-08T03:55:31.479Z,4.90
2018-07-08T03:58:03.335Z,4.70
2018-07-08T04:00:34.428Z,4.67
2018-07-08T04:03:05.641Z,4.97
2018-07-08T04:05:37.037Z,5.00
2018-07-08T04:08:08.895Z,5.10
2018-07-08T04:10:39.979Z,4.80
2018-07-08T04:13:12.087Z,5.20
2018-07-08T04:15:43.191Z,5.47
2018-07-08T04:18:14.986Z,5.23
2018-07-08T04:20:46.176Z,5.50
2018-07-08T04:23:17.419Z,5.67
2018-07-08T04:25:48.723Z,5.37
2018-07-08T04:28:19.885Z,5.83
2018-07-08T04:30:51.249Z,6.00
2018-07-08T04:33:22.326Z,6.40
2018-07-08T04:35:53.450Z,6.40
2018-07-08T04:38:24.840Z,7.13
2018-07-08T04:40:56.224Z,6.93
2018-07-08T04:43:27.305Z,6.57
2018-07-08T04:45:58.616Z,6.80
2018-07-08T04:48:29.840Z,6.70
2018-07-08T04:51:01.243Z,6.00
2018-07-08T04:53:32.843Z,6.20
2018-07-08T04:56:04.180Z,6.03
2018-07-08T04:58:35.760Z,6.17
2018-07-08T05:01:07.235Z,6.00
2018-07-08T05:03:38.521Z,5.80
2018-07-08T05:06:10.171Z,5.50
2018-07-08T05:08:41.518Z,5.30
2018-07-08T05:11:12.727Z,5.13
2018-07-08T05:13:43.911Z,5.20
2018-07-08T05:16:15.299Z,5.33
2018-07-08T05:18:46.931Z,5.13
2018-07-08T05:21:18.248Z,5.40
2018-07-08T05:23:50.232Z,5.10
2018-07-08T05:26:21.735Z,5.60
2018-07-08T05:28:53.029Z,5.13
2018-07-08T05:31:24.383Z,5.00
2018-07-08T05:33:56.071Z,5.10
2018-07-08T05:36:26.630Z,5.07
2018-07-08T05:38:57.557Z,5.50
2018-07-08T05:41:28.579Z,5.73
2018-07-08T05:43:59.803Z,5.43
2018-07-08T05:46:31.153Z,5.10
2018-07-08T05:49:02.356Z,5.00
2018-07-08T05:51:33.571Z,4.90
2018-07-08T05:54:04.942Z,5.10
2018-07-08T05:56:36.346Z,4.80
2018-07-08T05:59:07.680Z,4.70
2018-07-08T06:01:38.884Z,5.10
2018-07-08T06:04:10.275Z,4.60
2018-07-08T06:06:41.596Z,5.00
2018-07-08T06:09:13.241Z,4.80
2018-07-08T06:11:44.431Z,4.83
2018-07-08T06:14:15.611Z,5.07
2018-07-08T06:16:46.882Z,5.20
2018-07-08T06:19:18.122Z,4.57
2018-07-08T06:21:49.221Z,4.73
2018-07-08T06:24:20.453Z,5.27
2018-07-08T06:26:51.851Z,5.40
2018-07-08T06:29:23.065Z,5.37
2018-07-08T06:31:54.335Z,4.90
2018-07-08T06:34:26.062Z,4.80
2018-07-08T06:36:56.794Z,5.13
2018-07-08T06:39:27.959Z,4.70
2018-07-08T06:41:59.348Z,4.40
2018-07-08T06:44:30.539Z,4.70
2018-07-08T06:47:01.989Z,4.47
2018-07-08T06:49:33.169Z,4.90
2018-07-08T06:52:04.426Z,4.43
2018-07-08T06:54:35.483Z,4.63
2018-07-08T06:57:07.041Z,4.90
2018-07-08T06:59:38.307Z,4.63
2018-07-08T07:02:09.518Z,4.30
2018-07-08T07:04:40.652Z,4.40
2018-07-08T07:07:12.021Z,4.70
2018-07-08T07:09:43.232Z,4.77
2018-07-08T07:12:14.699Z,4.60
2018-07-08T07:14:45.843Z,4.10
2018-07-08T07:17:17.202Z,3.93
2018-07-08T07:19:49.360Z,4.57
2018-07-08T07:22:21.344Z,4.17
2018-07-08T07:24:53.039Z,4.10
2018-07-08T07:27:24.318Z,4.50
2018-07-08T07:29:55.573Z,4.17
2018-07-08T07:32:26.766Z,4.17
2018-07-08T07:34:58.084Z,4.20
2018-07-08T07:37:29.380Z,4.13
2018-07-08T07:40:00.724Z,4.13
2018-07-08T07:42:32.087Z,3.90
2018-07-08T07:45:03.267Z,3.73
2018-07-08T07:47:34.616Z,3.70
2018-07-08T07:50:05.982Z,3.53
2018-07-08T07:52:37.047Z,3.77
2018-07-08T07:55:08.425Z,3.60
2018-07-08T07:57:39.666Z,3.50
2018-07-08T08:00:11.013Z,3.50
2018-07-08T08:02:42.225Z,3.83
2018-07-08T08:05:13.560Z,3.87
2018-07-08T08:07:44.595Z,4.20
2018-07-08T08:10:15.963Z,3.90
2018-07-08T08:12:47.365Z,4.10
2018-07-08T08:15:18.547Z,3.77
2018-07-08T08:17:49.723Z,4.00
2018-07-08T08:20:21.000Z,3.80
2018-07-08T08:22:52.345Z,3.70
2018-07-08T08:25:23.563Z,3.90
2018-07-08T08:27:54.728Z,3.47
2018-07-08T08:30:25.974Z,3.93
2018-07-08T08:32:57.118Z,3.67
2018-07-08T08:35:28.467Z,4.17
2018-07-08T08:37:59.871Z,4.30
2018-07-08T08:40:31.740Z,4.00
2018-07-08T08:43:02.928Z,4.62
2018-07-08T08:45:34.227Z,4.20
2018-07-08T08:48:05.469Z,4.10
2018-07-08T08:50:36.615Z,4.07
2018-07-08T08:53:07.623Z,4.37
2018-07-08T08:55:38.992Z,4.30
2018-07-08T08:58:10.668Z,4.40
2018-07-08T09:00:41.963Z,4.28
2018-07-08T09:03:13.277Z,4.22
2018-07-08T09:05:44.763Z,3.87
2018-07-08T09:08:16.148Z,4.47
2018-07-08T09:10:47.771Z,4.50
2018-07-08T09:13:30.684Z,4.42
2018-07-08T09:16:01.732Z,4.10
2018-07-08T09:18:33.092Z,4.17
2018-07-08T09:21:04.683Z,3.92
2018-07-08T09:23:35.922Z,4.40
2018-07-08T09:26:08.214Z,4.33
2018-07-08T09:28:39.438Z,4.40
2018-07-08T09:31:10.800Z,4.40
2018-07-08T09:33:42.026Z,4.40
2018-07-08T09:36:13.191Z,4.33
2018-07-08T09:38:44.457Z,4.53
2018-07-08T09:41:15.579Z,4.40
2018-07-08T09:43:47.552Z,4.40
2018-07-08T09:46:19.452Z,4.30
2018-07-08T09:48:50.711Z,4.28
2018-07-08T09:51:22.101Z,4.40
2018-07-08T09:53:53.331Z,4.80
2018-07-08T09:56:24.747Z,4.22
2018-07-08T09:58:56.308Z,4.50
2018-07-08T10:01:27.496Z,4.10
2018-07-08T10:03:59.060Z,4.60
2018-07-08T10:06:30.704Z,4.37
2018-07-08T10:09:01.842Z,4.50
2018-07-08T10:11:33.051Z,4.15
2018-07-08T10:14:04.300Z,4.33
2018-07-08T10:16:35.644Z,3.62
2018-07-08T10:19:06.844Z,4.12
2018-07-08T10:21:39.019Z,3.77
2018-07-08T10:24:10.573Z,3.52
2018-07-08T10:26:41.920Z,3.72
2018-07-08T10:29:16.216Z,4.12
2018-07-08T10:31:50.539Z,3.75
2018-07-08T10:34:22.055Z,4.33
2018-07-08T10:36:53.210Z,4.00
2018-07-08T10:39:24.438Z,3.98
2018-07-08T10:41:55.798Z,3.87
2018-07-08T10:44:26.972Z,4.35
2018-07-08T10:46:57.979Z,4.10
2018-07-08T10:49:29.159Z,4.45
2018-07-08T10:52:00.429Z,3.83
2018-07-08T10:54:31.727Z,3.72
2018-07-08T10:57:03.190Z,3.70
2018-07-08T10:59:34.708Z,3.75
2018-07-08T11:02:06.056Z,3.60
2018-07-08T11:04:37.460Z,3.65
2018-07-08T11:07:08.670Z,3.60
2018-07-08T11:09:40.179Z,3.62
2018-07-08T11:12:11.329Z,3.40
2018-07-08T11:14:42.548Z,3.62
2018-07-08T11:17:13.346Z,3.70
2018-07-08T11:19:44.451Z,3.60
2018-07-08T11:22:15.674Z,3.95
2018-07-08T11:24:47.740Z,3.52
2018-07-08T11:27:18.988Z,3.80
2018-07-08T11:29:50.207Z,4.00
2018-07-08T11:32:21.604Z,3.70
2018-07-08T11:34:52.953Z,3.60
2018-07-08T11:37:24.183Z,4.00
2018-07-08T11:39:55.425Z,3.95
2018-07-08T11:42:26.632Z,4.00
2018-07-08T11:44:57.968Z,3.72
2018-07-08T11:47:29.368Z,3.83
2018-07-08T11:50:00.783Z,3.65
2018-07-08T11:52:31.947Z,4.10
2018-07-08T11:55:03.324Z,3.50
2018-07-08T11:57:34.943Z,3.50
2018-07-08T12:00:06.729Z,3.60
2018-07-08T12:02:38.346Z,3.72
2018-07-08T12:05:09.946Z,4.10
2018-07-08T12:07:41.032Z,4.03
2018-07-08T12:10:12.859Z,4.00
2018-07-08T12:12:44.652Z,3.80
2018-07-08T12:15:15.796Z,4.20
2018-07-08T12:17:47.411Z,3.95
2018-07-08T12:20:18.760Z,4.05
2018-07-08T12:22:50.470Z,4.60
2018-07-08T12:25:21.568Z,4.42
2018-07-08T12:27:52.912Z,3.85
2018-07-08T12:30:24.148Z,4.12
2018-07-08T12:32:55.514Z,4.20
2018-07-08T12:35:27.053Z,3.92
2018-07-08T12:37:58.059Z,4.25
2018-07-08T12:40:29.920Z,4.12
2018-07-08T12:43:01.063Z,4.05
2018-07-08T12:45:32.451Z,4.10
2018-07-08T12:48:04.065Z,3.52
2018-07-08T12:50:35.415Z,3.65
2018-07-08T12:53:07.625Z,3.95
2018-07-08T12:55:39.975Z,4.30
2018-07-08T12:58:11.139Z,4.20
2018-07-08T13:00:42.853Z,4.10
2018-07-08T13:03:14.556Z,4.20
2018-07-08T13:05:45.919Z,4.10
2018-07-08T13:08:17.101Z,4.17
2018-07-08T13:10:49.013Z,4.05
2018-07-08T13:13:20.266Z,4.30
2018-07-08T13:15:52.087Z,4.08
2018-07-08T13:18:23.436Z,4.28
2018-07-08T13:20:54.720Z,4.37
2018-07-08T13:23:25.474Z,4.58
2018-07-08T13:25:56.617Z,4.80
2018-07-08T13:28:27.866Z,4.80
2018-07-08T13:30:59.055Z,4.60
2018-07-08T13:33:30.602Z,4.80
2018-07-08T13:36:02.732Z,4.97
2018-07-08T13:38:33.812Z,4.95
2018-07-08T13:41:05.411Z,5.10
2018-07-08T13:43:36.563Z,4.97
2018-07-08T13:46:08.028Z,4.40
2018-07-08T13:48:39.622Z,4.90
2018-07-08T13:51:11.160Z,4.70
2018-07-08T13:53:42.668Z,4.70
2018-07-08T13:56:14.385Z,4.60
2018-07-08T13:58:45.466Z,4.50
2018-07-08T14:01:16.820Z,4.72
2018-07-08T14:03:47.905Z,4.53
2018-07-08T14:06:19.103Z,4.85
2018-07-08T14:08:51.145Z,4.90
2018-07-08T14:11:21.936Z,4.62
2018-07-08T14:13:53.550Z,4.72
2018-07-08T14:16:25.337Z,4.50
2018-07-08T14:18:56.533Z,4.30
2018-07-08T14:21:27.775Z,4.00
2018-07-08T14:23:58.921Z,4.10
2018-07-08T14:26:29.957Z,4.30
2018-07-08T14:29:01.567Z,4.47
2018-07-08T14:31:32.801Z,4.30
2018-07-08T14:34:04.416Z,4.00
2018-07-08T14:36:35.775Z,3.95
2018-07-08T14:39:08.095Z,3.90
2018-07-08T14:41:39.730Z,4.20
2018-07-08T14:44:10.892Z,4.10
2018-07-08T14:46:42.236Z,4.12
2018-07-08T14:49:13.401Z,4.17
2018-07-08T14:51:44.788Z,3.95
2018-07-08T14:54:15.988Z,3.77
2018-07-08T14:56:46.975Z,3.92
2018-07-08T14:59:18.691Z,4.10
2018-07-08T15:01:49.938Z,4.03
2018-07-08T15:04:22.080Z,3.98
2018-07-08T15:06:53.736Z,4.40
2018-07-08T15:09:25.395Z,4.50
2018-07-08T15:11:56.995Z,4.33
2018-07-08T15:14:28.238Z,4.50
2018-07-08T15:16:59.747Z,4.10
2018-07-08T15:19:30.868Z,3.87
2018-07-08T15:22:02.159Z,4.50
2018-07-08T15:24:33.696Z,4.30
2018-07-08T15:27:05.192Z,4.30
2018-07-08T15:29:36.872Z,4.20
2018-07-08T15:32:08.460Z,3.90
2018-07-08T15:34:39.868Z,3.85
2018-07-08T15:37:11.224Z,4.30
2018-07-08T15:39:42.782Z,3.90
2018-07-08T15:42:14.120Z,4.15
2018-07-08T15:44:45.622Z,4.20
2018-07-08T15:47:16.763Z,3.55
2018-07-08T15:49:48.074Z,4.10
2018-07-08T15:52:19.875Z,3.77
2018-07-08T15:54:51.076Z,3.60
2018-07-08T15:57:22.629Z,3.90
2018-07-08T15:59:53.809Z,3.98
2018-07-08T16:02:24.953Z,4.10
2018-07-08T16:04:56.100Z,4.03
2018-07-08T16:07:27.696Z,4.15
2018-07-08T16:09:58.823Z,3.75
2018-07-08T16:12:30.042Z,3.80
2018-07-08T16:15:02.229Z,4.00
2018-07-08T16:17:33.428Z,3.85
2018-07-08T16:20:05.195Z,4.00
2018-07-08T16:22:36.360Z,4.17
2018-07-08T16:25:07.775Z,3.77
2018-07-08T16:27:38.961Z,3.95
2018-07-08T16:30:10.289Z,4.20
2018-07-08T16:32:42.270Z,3.90
2018-07-08T16:35:13.723Z,4.28
2018-07-08T16:37:45.076Z,4.03
2018-07-08T16:40:16.521Z,3.95
2018-07-08T16:42:47.851Z,3.87
2018-07-08T16:45:19.488Z,4.08
2018-07-08T16:47:51.490Z,4.25
2018-07-08T16:50:22.898Z,4.10
2018-07-08T16:52:54.183Z,4.03
2018-07-08T16:55:25.701Z,4.00
2018-07-08T16:57:57.107Z,3.92
2018-07-08T17:00:28.367Z,3.80
2018-07-08T17:02:59.753Z,3.62
2018-07-08T17:05:31.143Z,3.80
2018-07-08T17:08:02.497Z,4.22
2018-07-08T17:10:34.409Z,3.92
2018-07-08T17:13:05.759Z,3.83
2018-07-08T17:15:37.522Z,3.70
2018-07-08T17:18:08.919Z,3.72
2018-07-08T17:20:40.232Z,3.70
2018-07-08T17:23:11.521Z,3.50
2018-07-08T17:25:43.285Z,3.40
2018-07-08T17:28:14.671Z,3.35
2018-07-08T17:30:45.835Z,3.20
2018-07-08T17:33:17.070Z,3.47
2018-07-08T17:35:48.927Z,3.20
2018-07-08T17:38:19.972Z,3.60
2018-07-08T17:40:51.662Z,3.50
2018-07-08T17:43:22.278Z,3.60
2018-07-08T17:45:53.487Z,3.17
2018-07-08T17:48:24.529Z,3.20
2018-07-08T17:50:55.791Z,3.10
2018-07-08T17:53:26.988Z,3.02
2018-07-08T17:55:58.119Z,3.30
2018-07-08T17:58:29.467Z,3.02
2018-07-08T18:01:00.724Z,2.90
2018-07-08T18:03:31.929Z,3.40
2018-07-08T18:06:03.480Z,3.08
2018-07-08T18:08:36.264Z,2.90
2018-07-08T18:11:07.685Z,3.10
2018-07-08T18:13:38.944Z,3.25
2018-07-08T18:16:10.201Z,3.20
2018-07-08T18:18:41.560Z,3.20
2018-07-08T18:21:13.117Z,3.23
2018-07-08T18:23:44.392Z,3.20
2018-07-08T18:26:15.701Z,3.40
2018-07-08T18:28:46.748Z,3.25
2018-07-08T18:31:17.738Z,3.20
2018-07-08T18:33:49.380Z,3.47
2018-07-08T18:36:20.832Z,3.50
2018-07-08T18:38:52.308Z,3.57
2018-07-08T18:41:23.680Z,3.50
2018-07-08T18:43:54.984Z,3.50
2018-07-08T18:46:26.586Z,3.47
2018-07-08T18:48:57.644Z,3.33
2018-07-08T18:51:29.300Z,3.63
2018-07-08T18:54:01.204Z,3.50
2018-07-08T18:56:32.596Z,3.17
2018-07-08T18:59:03.817Z,4.47
2018-07-08T19:01:35.015Z,3.83
2018-07-08T19:04:06.624Z,3.57
2018-07-08T19:06:37.940Z,3.50
2018-07-08T19:09:09.768Z,3.70
2018-07-08T19:11:41.591Z,3.43
2018-07-08T19:14:12.709Z,4.20
2018-07-08T19:16:43.901Z,3.97
2018-07-08T19:19:15.069Z,3.83
2018-07-08T19:21:46.434Z,3.70
2018-07-08T19:24:17.850Z,3.70
2018-07-08T19:26:49.144Z,4.10
2018-07-08T19:29:21.132Z,3.57
2018-07-08T19:31:52.366Z,4.40
2018-07-08T19:34:23.460Z,4.27
2018-07-08T19:36:54.899Z,4.53
2018-07-08T19:39:26.058Z,4.17
2018-07-08T19:41:57.723Z,4.20
2018-07-08T19:44:28.791Z,4.10
2018-07-08T19:47:00.891Z,4.07
2018-07-08T19:49:32.440Z,3.97
2018-07-08T19:52:04.415Z,4.03
2018-07-08T19:54:37.252Z,4.00
2018-07-08T19:57:08.575Z,4.07
2018-07-08T19:59:39.358Z,4.07
2018-07-08T20:02:10.489Z,3.50
2018-07-08T20:04:41.704Z,3.90
2018-07-08T20:07:13.019Z,3.57
2018-07-08T20:09:44.464Z,3.73
2018-07-08T20:12:15.888Z,3.50
2018-07-08T20:14:48.136Z,3.90
2018-07-08T20:17:19.323Z,4.10
2018-07-08T20:19:50.713Z,3.40
2018-07-08T20:22:23.089Z,3.70
2018-07-08T20:24:54.799Z,3.60
2018-07-08T20:27:26.868Z,4.00
2018-07-08T20:29:58.230Z,4.00
2018-07-08T20:32:29.751Z,3.77
2018-07-08T20:35:01.995Z,4.30
2018-07-08T20:37:33.093Z,4.30
2018-07-08T20:40:04.545Z,3.73
2018-07-08T20:42:35.721Z,4.80
2018-07-08T20:45:07.377Z,4.57
2018-07-08T20:47:38.934Z,4.93
2018-07-08T20:50:10.040Z,4.50
2018-07-08T20:52:41.268Z,4.33
2018-07-08T20:55:12.210Z,4.57
2018-07-08T20:57:44.572Z,4.57
2018-07-08T21:00:16.252Z,5.07
2018-07-08T21:02:47.852Z,5.07
2018-07-08T21:05:19.501Z,5.40
2018-07-08T21:07:51.420Z,4.60
2018-07-08T21:10:22.784Z,4.83
2018-07-08T21:12:54.152Z,4.50
2018-07-08T21:15:24.879Z,4.57
2018-07-08T21:17:56.051Z,4.40
2018-07-08T21:20:27.874Z,4.43
2018-07-08T21:22:59.501Z,4.43
2018-07-08T21:25:30.951Z,4.53
2018-07-08T21:28:02.432Z,4.40
2018-07-08T21:30:33.781Z,4.50
2018-07-08T21:33:05.981Z,4.13
2018-07-08T21:35:37.432Z,4.23
2018-07-08T21:38:08.545Z,4.30
2018-07-08T21:40:40.200Z,4.67
2018-07-08T21:43:11.648Z,4.27
2018-07-08T21:45:43.488Z,4.03
2018-07-08T21:48:14.703Z,4.23
2018-07-08T21:50:45.888Z,4.40
2018-07-08T21:53:17.447Z,4.40
2018-07-08T21:55:48.638Z,3.90
2018-07-08T21:58:20.025Z,4.17
2018-07-08T22:01:17.042Z,4.40
2018-07-08T22:03:49.178Z,4.20
2018-07-08T22:06:21.265Z,4.00
2018-07-08T22:08:52.956Z,3.80
2018-07-08T22:11:24.556Z,4.00
2018-07-08T22:13:56.180Z,4.23
2018-07-08T22:16:27.499Z,4.27
2018-07-08T22:18:58.878Z,4.17
2018-07-08T22:21:30.092Z,4.00
2018-07-08T22:24:01.761Z,3.70
2018-07-08T22:26:32.899Z,4.00
2018-07-08T22:29:04.031Z,4.30
2018-07-08T22:31:35.485Z,4.20
2018-07-08T22:34:06.867Z,4.57
2018-07-08T22:36:37.841Z,4.50
2018-07-08T22:39:11.164Z,4.10
2018-07-08T22:41:46.414Z,4.23
2018-07-08T22:44:17.865Z,4.27
2018-07-08T22:46:49.005Z,4.17
2018-07-08T22:49:20.207Z,4.40
2018-07-08T22:51:51.639Z,4.17
2018-07-08T22:54:22.803Z,4.10
2018-07-08T22:56:54.438Z,4.23
2018-07-08T22:59:26.581Z,3.97
2018-07-08T23:02:14.573Z,4.30
2018-07-08T23:04:45.892Z,4.10
2018-07-08T23:07:17.239Z,4.13
2018-07-08T23:09:48.777Z,4.00
2018-07-08T23:12:20.459Z,4.07
2018-07-08T23:14:51.861Z,4.20
2018-07-08T23:17:23.167Z,4.27
2018-07-08T23:19:54.532Z,5.60
2018-07-08T23:22:41.640Z,4.30
2018-07-08T23:25:13.278Z,4.40
2018-07-08T23:27:44.896Z,4.30
2018-07-08T23:30:16.285Z,4.57
2018-07-08T23:32:47.443Z,4.27
2018-07-08T23:35:19.496Z,4.13
2018-07-08T23:37:51.248Z,3.87
2018-07-08T23:40:23.466Z,4.07
2018-07-08T23:42:54.082Z,4.47
2018-07-08T23:45:25.447Z,4.33
2018-07-08T23:47:56.543Z,4.07
2018-07-08T23:50:28.223Z,4.20
2018-07-08T23:52:59.344Z,4.57
2018-07-08T23:55:30.561Z,4.47
2018-07-08T23:58:01.842Z,4.40
